Time;durP1;ratioP1;P1;durP2;ratioP2;P2;SDS_P1;SDS_P2;PMS_P1;PMS_P2;Temp;Humidity;BMP_temperature;BMP_pressure;BME280_temperature;BME280_humidity;BME280_pressure;Samples;Min_cycle;Max_cycle;Signal;HPM_P1;HPM_P2
2023/04/03 00:02:15;;;;;;;3.25;1.50;;;7.40;99.90;;;;;;5132650;27;20028;-74
2023/04/03 00:04:41;;;;;;;2.65;1.35;;;7.40;99.90;;;;;;5132275;27;20320;-74
2023/04/03 00:07:07;;;;;;;4.15;1.92;;;7.40;99.90;;;;;;5114259;27;20035;-74
2023/04/03 00:09:32;;;;;;;4.32;1.73;;;7.40;99.90;;;;;;5131815;27;20019;-78
2023/04/03 00:11:58;;;;;;;3.88;1.42;;;7.40;99.90;;;;;;5132409;27;20066;-74
2023/04/03 00:14:24;;;;;;;2.85;1.50;;;7.40;99.90;;;;;;5132633;27;20057;-74
2023/04/03 00:16:49;;;;;;;3.22;1.30;;;7.40;99.90;;;;;;5131304;27;20126;-74
2023/04/03 00:19:15;;;;;;;2.65;1.20;;;7.40;99.90;;;;;;5132297;27;20106;-74
2023/04/03 00:21:41;;;;;;;4.63;1.65;;;7.40;99.90;;;;;;5131087;27;20046;-74
2023/04/03 00:24:06;;;;;;;2.67;1.63;;;7.40;99.90;;;;;;5132121;27;20037;-74
2023/04/03 00:26:32;;;;;;;3.17;1.42;;;7.40;99.90;;;;;;5131916;27;20413;-78
2023/04/03 00:28:58;;;;;;;2.88;1.50;;;7.40;99.90;;;;;;5131873;27;20054;-74
2023/04/03 00:31:24;;;;;;;4.95;1.55;;;7.40;99.90;;;;;;5113366;27;20118;-74
2023/04/03 00:33:49;;;;;;;3.10;1.88;;;7.40;99.90;;;;;;5131371;27;20031;-74
2023/04/03 00:36:15;;;;;;;3.85;1.52;;;7.40;99.90;;;;;;5113485;27;20023;-74
2023/04/03 00:38:41;;;;;;;5.80;1.42;;;7.40;99.90;;;;;;5131253;27;20372;-74
2023/04/03 00:41:07;;;;;;;3.42;1.67;;;7.30;99.90;;;;;;5113436;27;20034;-74
2023/04/03 00:43:33;;;;;;;3.90;1.65;;;7.30;99.90;;;;;;5113252;27;20473;-79
2023/04/03 00:45:59;;;;;;;2.65;1.50;;;7.30;99.90;;;;;;5131971;27;20195;-74
2023/04/03 00:48:32;;;;;;;3.30;1.42;;;7.30;99.90;;;;;;5131867;27;20096;-74
2023/04/03 00:50:59;;;;;;;5.25;1.85;;;7.20;99.90;;;;;;5131043;27;20387;-75
2023/04/03 00:53:37;;;;;;;3.33;1.67;;;7.20;99.90;;;;;;5113313;27;20321;-75
2023/04/03 00:56:09;;;;;;;4.97;2.22;;;7.20;99.90;;;;;;5131733;27;20042;-75
2023/04/03 00:58:51;;;;;;;2.78;1.50;;;7.20;99.90;;;;;;5131734;27;20456;-78
2023/04/03 01:01:24;;;;;;;4.38;2.00;;;7.20;99.90;;;;;;5131577;27;20454;-75
2023/04/03 01:03:51;;;;;;;3.05;1.75;;;7.20;99.90;;;;;;5131246;27;20035;-74
2023/04/03 01:06:20;;;;;;;5.13;1.73;;;7.20;99.90;;;;;;5131568;27;20027;-74
2023/04/03 01:08:48;;;;;;;2.95;1.83;;;7.20;99.90;;;;;;5130858;27;20031;-75
2023/04/03 01:11:14;;;;;;;5.57;2.13;;;7.20;99.90;;;;;;5131604;27;20047;-75
2023/04/03 01:13:40;;;;;;;5.60;2.33;;;7.20;99.90;;;;;;5130768;28;20049;-74
2023/04/03 01:16:07;;;;;;;6.57;2.42;;;7.20;99.90;;;;;;5131208;28;20051;-74
2023/04/03 01:18:35;;;;;;;6.00;2.22;;;7.20;99.90;;;;;;5131259;28;20031;-74
2023/04/03 01:21:45;;;;;;;4.40;2.05;;;7.20;99.90;;;;;;5131274;28;20131;-74
2023/04/03 01:24:31;;;;;;;3.72;1.55;;;7.20;99.90;;;;;;5091729;28;20043;-74
2023/04/03 01:26:57;;;;;;;4.85;1.80;;;7.20;99.90;;;;;;5129988;28;20046;-74
2023/04/03 01:29:23;;;;;;;4.13;1.60;;;7.10;99.90;;;;;;5132197;27;20105;-75
2023/04/03 01:31:49;;;;;;;4.93;1.80;;;7.10;99.90;;;;;;5134771;27;20043;-75
2023/04/03 01:34:14;;;;;;;3.50;1.92;;;7.10;99.90;;;;;;5135109;27;20030;-75
2023/04/03 01:36:41;;;;;;;6.53;1.90;;;7.10;99.90;;;;;;5134792;27;20027;-75
2023/04/03 01:39:07;;;;;;;3.15;1.90;;;7.10;99.90;;;;;;5135341;27;20023;-74
2023/04/03 01:41:32;;;;;;;4.10;1.90;;;7.00;99.90;;;;;;5135370;27;20042;-74
2023/04/03 01:43:58;;;;;;;5.70;1.55;;;7.00;99.90;;;;;;5134966;27;20015;-74
2023/04/03 01:46:24;;;;;;;2.90;1.80;;;7.00;99.90;;;;;;5116868;27;20052;-75
2023/04/03 01:48:50;;;;;;;3.85;1.77;;;6.80;99.90;;;;;;5134558;27;20030;-75
2023/04/03 01:51:16;;;;;;;2.58;1.70;;;6.80;99.90;;;;;;5134798;27;20149;-75
2023/04/03 01:53:41;;;;;;;5.88;2.58;;;6.80;99.90;;;;;;5134773;27;20035;-75
2023/04/03 01:56:08;;;;;;;3.67;2.38;;;6.70;99.90;;;;;;5116297;27;20027;-75
2023/04/03 01:58:34;;;;;;;2.55;1.80;;;6.60;99.90;;;;;;5116397;27;20027;-75
2023/04/03 02:01:00;;;;;;;2.97;1.92;;;6.60;99.90;;;;;;5134460;27;20049;-73
2023/04/03 02:03:26;;;;;;;5.32;1.88;;;6.50;99.90;;;;;;5134942;27;20385;-74
2023/04/03 02:05:51;;;;;;;3.92;1.90;;;6.50;99.90;;;;;;5134068;27;20026;-74
2023/04/03 02:08:20;;;;;;;3.97;1.90;;;6.50;99.90;;;;;;5134395;27;20031;-74
2023/04/03 02:10:49;;;;;;;4.35;2.22;;;6.40;99.90;;;;;;5134015;27;20041;-75
2023/04/03 02:13:17;;;;;;;3.13;2.20;;;6.40;99.90;;;;;;5134510;27;20479;-74
2023/04/03 02:15:42;;;;;;;5.05;2.30;;;6.30;99.90;;;;;;5133756;27;20030;-74
2023/04/03 02:18:09;;;;;;;3.78;2.00;;;6.30;99.90;;;;;;5134698;27;20019;-74
2023/04/03 02:20:35;;;;;;;3.13;2.03;;;6.30;99.90;;;;;;5134696;27;20115;-74
2023/04/03 02:23:01;;;;;;;5.45;2.30;;;6.10;99.90;;;;;;5132883;27;20198;-74
2023/04/03 02:25:27;;;;;;;7.10;2.35;;;6.10;99.90;;;;;;5132784;28;20027;-74
2023/04/03 02:27:52;;;;;;;9.75;2.58;;;6.00;99.90;;;;;;5132510;28;20104;-74
2023/04/03 02:30:18;;;;;;;6.10;2.08;;;6.00;99.90;;;;;;5132929;28;20122;-74
2023/04/03 02:32:44;;;;;;;3.63;2.30;;;6.00;99.90;;;;;;5132364;28;20031;-74
2023/04/03 02:35:11;;;;;;;6.10;2.67;;;6.00;99.90;;;;;;5133194;28;20157;-74
2023/04/03 02:37:37;;;;;;;4.53;2.60;;;6.00;99.90;;;;;;5132738;28;20032;-74
2023/04/03 02:40:03;;;;;;;4.95;2.42;;;6.00;99.90;;;;;;5132041;27;20044;-74
2023/04/03 02:42:29;;;;;;;7.03;2.25;;;6.00;99.90;;;;;;5132874;28;20035;-74
2023/04/03 02:44:55;;;;;;;4.43;2.00;;;6.00;99.90;;;;;;5132243;28;20121;-74
2023/04/03 02:47:21;;;;;;;2.97;1.80;;;6.00;99.90;;;;;;5132868;28;20027;-74
2023/04/03 02:49:46;;;;;;;7.65;2.50;;;6.00;99.90;;;;;;5132363;28;20019;-74
2023/04/03 02:52:13;;;;;;;4.30;2.20;;;6.00;99.90;;;;;;5132808;28;20042;-75
2023/04/03 02:54:39;;;;;;;7.88;2.97;;;6.00;99.90;;;;;;5133033;28;20160;-75
2023/04/03 02:57:05;;;;;;;5.03;2.83;;;5.90;99.90;;;;;;5132129;28;20107;-75
2023/04/03 02:59:31;;;;;;;4.25;2.33;;;6.00;99.90;;;;;;5132667;28;20443;-75
2023/04/03 03:01:56;;;;;;;5.03;2.90;;;5.90;99.90;;;;;;5131840;28;20023;-75
2023/04/03 03:04:22;;;;;;;5.28;2.60;;;5.90;99.90;;;;;;5132896;28;20047;-75
2023/04/03 03:06:48;;;;;;;6.40;2.85;;;5.90;99.90;;;;;;5132044;28;20384;-75
2023/04/03 03:09:14;;;;;;;7.20;3.25;;;5.90;99.90;;;;;;5132248;28;20111;-75
2023/04/03 03:11:40;;;;;;;5.05;3.17;;;6.00;99.90;;;;;;5113764;28;20485;-75
2023/04/03 03:14:06;;;;;;;5.00;3.35;;;6.00;99.90;;;;;;5113152;28;20031;-75
2023/04/03 03:16:31;;;;;;;8.25;3.88;;;6.10;99.90;;;;;;5132003;28;20025;-75
2023/04/03 03:18:57;;;;;;;6.05;3.80;;;6.10;99.90;;;;;;5096055;28;20019;-75
2023/04/03 03:21:23;;;;;;;8.43;4.50;;;6.20;99.90;;;;;;5132417;28;20063;-75
2023/04/03 03:23:48;;;;;;;7.03;3.60;;;6.30;99.90;;;;;;5088048;27;1235072;-76
2023/04/03 03:26:14;;;;;;;7.55;4.00;;;6.30;99.90;;;;;;5133160;27;20104;-75
2023/04/03 03:28:40;;;;;;;6.38;3.85;;;6.30;99.90;;;;;;5133202;27;20027;-73
2023/04/03 03:31:07;;;;;;;11.10;4.32;;;6.30;99.90;;;;;;5132048;27;20249;-74
2023/04/03 03:33:33;;;;;;;8.73;4.53;;;6.30;99.90;;;;;;5132670;27;20024;-74
2023/04/03 03:35:59;;;;;;;6.65;4.30;;;6.30;99.90;;;;;;5132303;27;20027;-74
2023/04/03 03:38:25;;;;;;;10.25;5.00;;;6.30;99.90;;;;;;5132977;27;20020;-74
2023/04/03 03:40:51;;;;;;;8.73;4.43;;;6.40;99.90;;;;;;5132305;27;20400;-74
2023/04/03 03:43:18;;;;;;;10.52;4.47;;;6.40;99.90;;;;;;5132606;27;20437;-74
2023/04/03 03:45:45;;;;;;;9.00;4.75;;;6.50;99.90;;;;;;5132688;27;20096;-75
2023/04/03 03:48:11;;;;;;;7.60;4.50;;;6.50;99.90;;;;;;5132497;27;20031;-73
2023/04/03 03:50:36;;;;;;;7.55;4.82;;;6.50;99.90;;;;;;5132673;27;20038;-73
2023/04/03 03:53:02;;;;;;;7.35;4.90;;;6.50;99.90;;;;;;5130853;27;20117;-74
2023/04/03 03:55:28;;;;;;;8.55;4.65;;;6.50;99.90;;;;;;5132457;27;20042;-74
2023/04/03 03:57:54;;;;;;;10.68;5.00;;;6.50;99.90;;;;;;5131691;27;20123;-74
2023/04/03 04:00:19;;;;;;;9.93;5.03;;;6.60;99.90;;;;;;5132188;27;20030;-74
2023/04/03 04:02:45;;;;;;;8.85;5.25;;;6.60;99.90;;;;;;5132377;27;20080;-73
2023/04/03 04:05:11;;;;;;;8.25;5.22;;;6.70;99.90;;;;;;5131507;27;20464;-72
2023/04/03 04:07:37;;;;;;;7.03;4.78;;;6.80;99.90;;;;;;5132574;27;20023;-74
2023/04/03 04:10:03;;;;;;;7.90;4.72;;;6.70;99.90;;;;;;5131452;27;20031;-74
2023/04/03 04:12:29;;;;;;;8.30;5.10;;;6.80;99.90;;;;;;5131886;27;20095;-74
2023/04/03 04:14:55;;;;;;;8.70;5.10;;;6.80;99.90;;;;;;5131634;27;20499;-74
2023/04/03 04:17:21;;;;;;;9.02;5.18;;;6.80;99.90;;;;;;5132112;27;20019;-74
2023/04/03 04:19:47;;;;;;;6.15;4.55;;;6.80;99.90;;;;;;5131671;27;20031;-74
2023/04/03 04:22:12;;;;;;;11.02;5.47;;;6.80;99.90;;;;;;5131269;27;20092;-74
2023/04/03 04:24:38;;;;;;;7.15;5.05;;;6.80;99.90;;;;;;5113457;27;20027;-73
2023/04/03 04:27:04;;;;;;;10.18;6.28;;;6.80;99.90;;;;;;5131365;27;20476;-73
2023/04/03 04:29:34;;;;;;;8.40;6.60;;;6.80;99.90;;;;;;5132162;27;20073;-73
2023/04/03 04:32:00;;;;;;;9.75;6.22;;;6.80;99.90;;;;;;5131111;27;20456;-74
2023/04/03 04:34:26;;;;;;;10.52;7.50;;;6.90;99.90;;;;;;5131862;27;20019;-73
2023/04/03 04:36:52;;;;;;;8.15;6.65;;;6.90;99.90;;;;;;5131269;27;20062;-78
2023/04/03 04:39:17;;;;;;;10.90;6.50;;;6.80;99.90;;;;;;5131824;27;20027;-74
2023/04/03 04:41:43;;;;;;;10.02;7.50;;;6.90;99.90;;;;;;5131451;27;20065;-73
2023/04/03 04:44:09;;;;;;;10.88;7.78;;;6.90;99.90;;;;;;5130904;27;20034;-73
2023/04/03 04:46:35;;;;;;;11.30;8.38;;;6.90;99.90;;;;;;5131277;27;20031;-73
2023/04/03 04:49:00;;;;;;;10.32;7.53;;;6.80;99.90;;;;;;5130609;27;20490;-73
2023/04/03 04:51:26;;;;;;;10.80;7.88;;;6.80;99.90;;;;;;5131624;27;20107;-74
2023/04/03 04:53:52;;;;;;;12.02;7.90;;;6.90;99.90;;;;;;5130827;27;20076;-78
2023/04/03 04:56:18;;;;;;;9.45;7.72;;;6.90;99.90;;;;;;5131512;27;20034;-75
2023/04/03 04:58:43;;;;;;;9.05;7.88;;;6.90;99.90;;;;;;5131477;27;20031;-75
2023/04/03 05:01:10;;;;;;;12.55;7.65;;;6.90;99.90;;;;;;5112303;28;20038;-75
2023/04/03 05:03:36;;;;;;;11.20;7.68;;;6.90;99.90;;;;;;5131388;27;20498;-74
2023/04/03 05:06:02;;;;;;;10.68;6.45;;;7.00;99.90;;;;;;5130626;27;20351;-74
2023/04/03 05:08:28;;;;;;;9.13;6.90;;;6.90;99.90;;;;;;5131398;27;20117;-74
2023/04/03 05:10:54;;;;;;;8.38;6.13;;;7.00;99.90;;;;;;5130735;27;20557;-78
2023/04/03 05:13:20;;;;;;;6.13;5.25;;;7.00;99.90;;;;;;5130817;27;20032;-73
2023/04/03 05:15:46;;;;;;;6.32;5.00;;;7.10;99.90;;;;;;5131120;27;20026;-74
2023/04/03 05:18:13;;;;;;;7.72;5.18;;;7.20;99.90;;;;;;5130417;28;20060;-74
2023/04/03 05:20:39;;;;;;;9.13;5.72;;;7.20;99.90;;;;;;5131278;28;20321;-73
2023/04/03 05:23:04;;;;;;;9.43;5.53;;;7.30;99.90;;;;;;5130468;27;20047;-74
2023/04/03 05:25:30;;;;;;;10.48;6.20;;;7.30;99.90;;;;;;5130800;28;20031;-73
2023/04/03 05:27:56;;;;;;;10.32;6.15;;;7.30;99.90;;;;;;5130294;28;20468;-75
2023/04/03 05:30:22;;;;;;;8.80;6.28;;;7.30;99.90;;;;;;5130858;28;20034;-74
2023/04/03 05:32:48;;;;;;;9.88;7.38;;;7.20;99.90;;;;;;5131121;28;20157;-73
2023/04/03 05:35:14;;;;;;;10.10;7.35;;;7.20;99.90;;;;;;5129960;28;20035;-74
2023/04/03 05:37:40;;;;;;;10.32;6.85;;;7.20;99.90;;;;;;5112287;28;20028;-74
2023/04/03 05:40:07;;;;;;;12.77;7.38;;;7.10;99.90;;;;;;5129868;28;20321;-74
2023/04/03 05:42:33;;;;;;;8.73;6.05;;;6.90;99.90;;;;;;5130770;28;20031;-74
2023/04/03 05:44:58;;;;;;;8.40;5.63;;;6.90;99.90;;;;;;5130225;28;20031;-74
2023/04/03 05:47:24;;;;;;;6.60;4.80;;;6.90;99.90;;;;;;5130912;28;20024;-74
2023/04/03 05:49:50;;;;;;;5.85;5.03;;;7.00;99.90;;;;;;5130470;28;20068;-74
2023/04/03 05:52:25;;;;;;;5.63;4.50;;;7.20;99.90;;;;;;5130415;28;20041;-74
2023/04/03 05:54:51;;;;;;;12.07;5.78;;;7.20;99.90;;;;;;5112558;28;20038;-74
2023/04/03 05:57:18;;;;;;;8.25;5.47;;;7.30;99.90;;;;;;5130440;28;20757;-75
2023/04/03 05:59:44;;;;;;;7.20;4.38;;;7.40;99.90;;;;;;5130724;28;20056;-75
2023/04/03 06:02:17;;;;;;;8.50;5.13;;;7.40;99.90;;;;;;5130284;28;20363;-74
2023/04/03 06:04:44;;;;;;;8.05;4.90;;;7.50;99.90;;;;;;5131445;28;20019;-74
2023/04/03 06:07:16;;;;;;;7.78;5.18;;;7.50;99.90;;;;;;5130455;28;20432;-74
2023/04/03 06:09:42;;;;;;;7.37;5.03;;;7.60;99.90;;;;;;5130733;28;20027;-73
2023/04/03 06:12:08;;;;;;;10.07;5.40;;;7.60;99.90;;;;;;5130134;28;20318;-74
2023/04/03 06:14:34;;;;;;;10.45;5.75;;;7.70;99.90;;;;;;5130771;27;20019;-75
2023/04/03 06:17:00;;;;;;;10.48;5.85;;;7.70;99.90;;;;;;5133317;27;20020;-76
2023/04/03 06:19:26;;;;;;;11.18;6.28;;;7.80;99.90;;;;;;5134424;27;20378;-75
2023/04/03 06:21:52;;;;;;;12.20;7.18;;;7.90;99.90;;;;;;5115591;27;20490;-75
2023/04/03 06:24:21;;;;;;;11.57;6.82;;;7.90;99.90;;;;;;5133759;27;20090;-75
2023/04/03 06:26:47;;;;;;;11.93;6.88;;;8.00;99.90;;;;;;5134302;27;20042;-75
2023/04/03 06:29:13;;;;;;;12.93;7.10;;;8.10;99.90;;;;;;5133281;27;20456;-74
2023/04/03 06:31:39;;;;;;;11.52;6.97;;;8.30;99.90;;;;;;5134117;27;20095;-73
2023/04/03 06:34:07;;;;;;;10.93;7.10;;;8.40;99.90;;;;;;5133344;27;20019;-74
2023/04/03 06:36:33;;;;;;;12.90;7.68;;;8.50;99.90;;;;;;5134122;27;20031;-74
2023/04/03 06:38:59;;;;;;;9.70;6.80;;;8.60;99.90;;;;;;5134353;27;20084;-76
2023/04/03 06:41:26;;;;;;;14.15;7.82;;;8.60;99.90;;;;;;5134177;27;20069;-73
2023/04/03 06:43:51;;;;;;;13.13;7.22;;;8.60;99.90;;;;;;5134064;27;20046;-74
2023/04/03 06:46:19;;;;;;;14.73;8.07;;;8.70;99.90;;;;;;5114990;27;20023;-74
2023/04/03 06:48:45;;;;;;;13.10;7.20;;;8.70;99.90;;;;;;5133957;27;20122;-74
2023/04/03 06:51:30;;;;;;;11.10;7.10;;;8.80;99.90;;;;;;5133113;27;20024;-74
2023/04/03 06:53:58;;;;;;;10.60;6.38;;;8.90;99.90;;;;;;5133608;27;20095;-73
2023/04/03 06:56:26;;;;;;;16.23;7.40;;;9.00;99.90;;;;;;5132836;27;20054;-73
2023/04/03 06:58:54;;;;;;;12.43;6.78;;;9.10;99.90;;;;;;5133252;27;20083;-74
2023/04/03 07:01:20;;;;;;;11.48;5.55;;;9.20;99.90;;;;;;5132824;27;20612;-73
2023/04/03 07:03:48;;;;;;;11.23;5.35;;;9.40;99.90;;;;;;5133292;27;20470;-73
2023/04/03 07:06:15;;;;;;;13.32;5.78;;;9.50;99.90;;;;;;5133133;27;20031;-74
2023/04/03 07:08:42;;;;;;;14.55;5.65;;;9.60;99.90;;;;;;5133511;27;20037;-73
2023/04/03 07:11:09;;;;;;;11.88;4.78;;;9.70;99.90;;;;;;5132851;27;20478;-74
2023/04/03 07:13:35;;;;;;;13.82;5.35;;;9.70;99.90;;;;;;5133618;27;20023;-74
2023/04/03 07:16:01;;;;;;;11.98;5.85;;;9.80;99.90;;;;;;5132944;27;20471;-76
2023/04/03 07:18:26;;;;;;;11.35;5.38;;;9.80;99.90;;;;;;5132830;27;20020;-74
2023/04/03 07:20:52;;;;;;;11.30;5.72;;;9.80;99.90;;;;;;5133030;27;20417;-74
2023/04/03 07:23:18;;;;;;;15.50;6.03;;;9.70;99.90;;;;;;5132165;27;20080;-74
2023/04/03 07:25:46;;;;;;;14.63;5.75;;;9.80;99.90;;;;;;5133083;27;20023;-73
2023/04/03 07:28:13;;;;;;;18.60;5.38;;;9.70;99.90;;;;;;5131346;27;20023;-74
2023/04/03 07:30:46;;;;;;;13.65;5.70;;;9.80;99.90;;;;;;5132448;27;20027;-74
2023/04/03 07:33:13;;;;;;;13.93;5.55;;;9.70;99.90;;;;;;5132115;27;20444;-74
2023/04/03 07:35:40;;;;;;;11.55;4.93;;;9.70;99.90;;;;;;5132623;27;20102;-73
2023/04/03 07:38:06;;;;;;;11.25;5.05;;;9.70;99.90;;;;;;5132177;27;20031;-73
2023/04/03 07:40:32;;;;;;;9.93;5.05;;;9.80;99.90;;;;;;5132821;27;20027;-73
2023/04/03 07:42:58;;;;;;;11.27;4.68;;;9.90;99.90;;;;;;5132635;27;20096;-73
2023/04/03 07:45:24;;;;;;;11.52;5.00;;;10.00;99.90;;;;;;5132099;27;20023;-73
2023/04/03 07:47:50;;;;;;;12.02;5.10;;;10.00;99.90;;;;;;5132726;27;20019;-73
2023/04/03 07:50:16;;;;;;;13.85;5.60;;;10.00;99.90;;;;;;5131806;27;20470;-72
2023/04/03 07:52:42;;;;;;;10.35;5.03;;;10.00;99.90;;;;;;5132616;27;20027;-73
2023/04/03 07:55:08;;;;;;;13.05;5.47;;;10.00;99.90;;;;;;5131961;27;20097;-73
2023/04/03 07:57:35;;;;;;;13.23;5.07;;;10.00;99.90;;;;;;5132194;27;20029;-75
2023/04/03 08:00:01;;;;;;;13.27;4.80;;;10.00;99.90;;;;;;5132345;27;20475;-75
2023/04/03 08:02:26;;;;;;;16.63;5.60;;;10.10;99.90;;;;;;5131386;27;20042;-74
2023/04/03 08:04:53;;;;;;;10.68;4.82;;;10.20;99.90;;;;;;5132171;27;20091;-74
2023/04/03 08:07:18;;;;;;;16.25;5.18;;;10.20;99.90;;;;;;5131975;27;20536;-75
2023/04/03 08:09:44;;;;;;;12.68;5.18;;;10.20;99.90;;;;;;5132728;27;20027;-74
2023/04/03 08:12:11;;;;;;;10.65;4.70;;;10.20;99.90;;;;;;5131533;27;20483;-74
2023/04/03 08:14:37;;;;;;;14.55;4.45;;;10.40;99.90;;;;;;5132565;27;20027;-73
2023/04/03 08:17:04;;;;;;;10.93;3.85;;;10.40;99.90;;;;;;5114070;27;20028;-73
2023/04/03 08:19:31;;;;;;;11.70;4.38;;;10.40;99.90;;;;;;5113559;27;20503;-75
2023/04/03 08:21:58;;;;;;;14.82;4.47;;;10.40;99.90;;;;;;5131819;27;20122;-74
2023/04/03 08:24:24;;;;;;;10.05;3.83;;;10.40;99.90;;;;;;5132478;27;20027;-73
2023/04/03 08:26:50;;;;;;;10.40;4.93;;;10.40;99.90;;;;;;5132799;27;20046;-73
2023/04/03 08:29:16;;;;;;;12.75;4.57;;;10.40;99.90;;;;;;5130962;27;20032;-73
2023/04/03 08:31:41;;;;;;;10.63;4.35;;;10.40;99.90;;;;;;5112381;27;20500;-73
2023/04/03 08:34:08;;;;;;;6.80;3.60;;;10.40;99.90;;;;;;5131253;27;20115;-77
2023/04/03 08:36:34;;;;;;;13.43;4.05;;;10.40;99.90;;;;;;5131447;27;20456;-74
2023/04/03 08:39:00;;;;;;;12.25;3.97;;;10.30;99.90;;;;;;5112279;27;20020;-74
2023/04/03 08:41:38;;;;;;;14.45;4.72;;;10.40;99.90;;;;;;5130700;27;20492;-74
2023/04/03 08:44:04;;;;;;;11.70;4.43;;;10.30;99.90;;;;;;5131279;27;20544;-74
2023/04/03 08:46:39;;;;;;;10.13;4.03;;;10.40;99.90;;;;;;5130657;27;20084;-74
2023/04/03 08:49:15;;;;;;;7.32;4.05;;;10.40;99.90;;;;;;5131037;27;20023;-74
2023/04/03 08:51:48;;;;;;;9.82;5.28;;;10.50;99.90;;;;;;5112532;27;20039;-75
2023/04/03 08:54:35;;;;;;;10.43;4.55;;;10.70;99.90;;;;;;5130774;27;20038;-75
2023/04/03 08:57:03;;;;;;;12.45;5.10;;;10.70;99.90;;;;;;5131311;27;20106;-75
2023/04/03 08:59:34;;;;;;;13.10;4.40;;;10.90;99.90;;;;;;5130516;27;20931;-74
2023/04/03 09:02:06;;;;;;;12.43;5.13;;;10.90;99.90;;;;;;5130437;27;20053;-75
2023/04/03 09:04:33;;;;;;;14.93;5.30;;;11.00;99.90;;;;;;5130615;27;20086;-74
2023/04/03 09:07:08;;;;;;;8.48;4.47;;;10.90;99.90;;;;;;5130914;27;20062;-74
2023/04/03 09:09:41;;;;;;;17.33;5.20;;;11.00;99.90;;;;;;5131218;27;20027;-74
2023/04/03 09:12:25;;;;;;;11.85;4.85;;;11.00;99.90;;;;;;5130618;27;20084;-78
2023/04/03 09:15:02;;;;;;;10.40;4.35;;;11.00;99.90;;;;;;5130615;27;20027;-74
2023/04/03 09:17:43;;;;;;;10.30;4.05;;;11.10;99.90;;;;;;5131057;27;20148;-75
2023/04/03 09:20:43;;;;;;;11.20;4.32;;;11.10;99.90;;;;;;5131002;28;20374;-78
2023/04/03 09:23:24;;;;;;;10.02;5.00;;;11.10;99.90;;;;;;5130829;28;20489;-78
2023/04/03 09:25:53;;;;;;;11.32;3.75;;;11.20;99.90;;;;;;5131535;28;20081;-74
2023/04/03 09:28:19;;;;;;;9.30;4.00;;;11.40;99.90;;;;;;5130923;28;20072;-74
2023/04/03 09:30:45;;;;;;;12.90;4.57;;;11.60;99.90;;;;;;5131048;28;20019;-74
2023/04/03 09:33:12;;;;;;;10.77;3.85;;;11.70;99.90;;;;;;5130690;28;20034;-78
2023/04/03 09:35:40;;;;;;;11.32;3.40;;;11.70;99.90;;;;;;5132261;28;20023;-75
2023/04/03 09:38:11;;;;;;;15.93;4.40;;;11.60;99.90;;;;;;5131850;28;20027;-75
2023/04/03 09:40:42;;;;;;;16.60;4.60;;;11.60;99.90;;;;;;5131900;28;20039;-75
2023/04/03 09:43:16;;;;;;;9.02;4.15;;;11.60;99.90;;;;;;5131688;28;20402;-75
2023/04/03 09:45:44;;;;;;;9.63;4.22;;;11.70;99.90;;;;;;5132123;28;20088;-75
2023/04/03 09:48:12;;;;;;;7.15;3.35;;;11.90;99.90;;;;;;5131926;28;20379;-79
2023/04/03 09:51:01;;;;;;;10.00;4.47;;;11.90;99.90;;;;;;5132871;27;20023;-75
2023/04/03 09:53:31;;;;;;;14.93;3.95;;;11.90;99.90;;;;;;5135557;27;20042;-75
2023/04/03 09:55:58;;;;;;;13.98;4.47;;;11.90;99.90;;;;;;5136042;27;20467;-75
2023/04/03 09:58:33;;;;;;;13.10;4.43;;;11.90;99.90;;;;;;5135519;27;20019;-75
2023/04/03 10:01:01;;;;;;;11.88;5.15;;;11.90;99.90;;;;;;5135802;27;20030;-75
2023/04/03 10:03:31;;;;;;;14.60;4.40;;;11.80;99.90;;;;;;5135195;27;20023;-74
2023/04/03 10:05:58;;;;;;;12.38;4.88;;;11.70;99.90;;;;;;5135994;27;20034;-75
2023/04/03 10:08:34;;;;;;;9.07;4.00;;;11.60;99.90;;;;;;5134932;27;20019;-75
2023/04/03 10:11:16;;;;;;;18.25;5.55;;;11.60;99.90;;;;;;5135794;27;20029;-75
2023/04/03 10:14:00;;;;;;;14.65;4.63;;;11.50;99.90;;;;;;5135661;27;20071;-75
2023/04/03 10:16:37;;;;;;;11.85;4.75;;;11.60;99.90;;;;;;5134948;27;20130;-75
2023/04/03 10:19:56;;;;;;;12.40;4.32;;;11.60;99.90;;;;;;5135686;27;20050;-75
2023/04/03 10:22:42;;;;;;;13.25;4.38;;;11.60;99.90;;;;;;5030621;28;20239;-75
2023/04/03 10:25:11;;;;;;;13.30;4.43;;;11.60;99.90;;;;;;5126700;27;20066;-74
2023/04/03 10:27:51;;;;;;;13.00;4.20;;;11.60;99.90;;;;;;5133869;27;20088;-75
2023/04/03 10:30:36;;;;;;;18.10;4.80;;;11.50;99.90;;;;;;5133517;27;20034;-75
2023/04/03 10:33:20;;;;;;;16.23;5.38;;;11.50;99.90;;;;;;5115197;27;20031;-75
2023/04/03 10:36:08;;;;;;;15.55;4.55;;;11.50;99.90;;;;;;5134273;27;20031;-75
2023/04/03 10:39:01;;;;;;;18.45;5.65;;;11.50;99.90;;;;;;5133050;27;20506;-74
2023/04/03 10:41:36;;;;;;;13.48;5.70;;;11.50;99.90;;;;;;5133593;27;20041;-75
2023/04/03 10:44:12;;;;;;;18.48;6.78;;;11.40;99.90;;;;;;5133939;27;20084;-75
2023/04/03 10:46:55;;;;;;;33.78;9.10;;;11.50;99.90;;;;;;5133499;27;20127;-75
2023/04/03 10:49:42;;;;;;;15.70;5.15;;;11.60;99.90;;;;;;5133108;27;20479;-74
2023/04/03 10:53:02;;;;;;;16.00;5.78;;;11.60;99.90;;;;;;5133786;27;20043;-74
2023/04/03 10:55:55;;;;;;;17.15;6.93;;;11.60;99.90;;;;;;5029425;28;20029;-74
2023/04/03 10:58:26;;;;;;;;;;;11.60;99.90;;;;;;5133754;27;20055;-75
2023/04/03 11:00:56;;;;;;;20.88;11.07;;;11.70;99.90;;;;;;5134607;27;19975;-74
2023/04/03 11:03:44;;;;;;;36.15;15.68;;;11.70;99.90;;;;;;5134369;27;20424;-74
2023/04/03 11:06:12;;;;;;;22.00;9.70;;;11.70;99.90;;;;;;5134767;27;20371;-75
2023/04/03 11:09:06;;;;;;;14.48;6.65;;;11.60;99.90;;;;;;5134116;27;20106;-75
2023/04/03 11:11:41;;;;;;;30.23;8.35;;;11.60;99.90;;;;;;5134007;27;20023;-75
2023/04/03 11:14:24;;;;;;;18.23;7.07;;;11.60;99.90;;;;;;5116458;27;20026;-74
2023/04/03 11:17:09;;;;;;;14.95;6.82;;;11.60;99.90;;;;;;5134432;27;20023;-74
2023/04/03 11:19:41;;;;;;;12.90;5.80;;;11.60;99.90;;;;;;5134116;27;20031;-74
2023/04/03 11:22:26;;;;;;;10.00;3.47;;;11.60;99.90;;;;;;5115316;27;20464;-75
2023/04/03 11:25:12;;;;;;;17.00;4.35;;;11.60;99.90;;;;;;5134389;27;20023;-74
2023/04/03 11:28:06;;;;;;;17.08;4.57;;;11.60;99.90;;;;;;5115413;27;20035;-75
2023/04/03 11:30:46;;;;;;;14.25;4.10;;;11.70;99.90;;;;;;5129898;27;20042;-74
2023/04/03 11:33:20;;;;;;;11.18;3.70;;;11.80;99.90;;;;;;5133839;27;20027;-74
2023/04/03 11:35:49;;;;;;;13.93;4.05;;;11.90;99.90;;;;;;5134137;27;20063;-74
2023/04/03 11:38:26;;;;;;;21.02;4.28;;;11.90;99.90;;;;;;5134087;27;20023;-73
2023/04/03 11:40:54;;;;;;;13.50;4.55;;;12.00;99.90;;;;;;5133884;27;20122;-74
2023/04/03 11:43:31;;;;;;;17.15;4.57;;;12.10;99.90;;;;;;5133643;27;20031;-77
2023/04/03 11:46:00;;;;;;;17.33;4.53;;;12.10;99.90;;;;;;5134074;27;20435;-75
2023/04/03 11:48:32;;;;;;;14.85;4.03;;;12.20;99.90;;;;;;5133431;27;20096;-75
2023/04/03 11:51:17;;;;;;;14.80;4.28;;;12.30;99.90;;;;;;5133815;27;20060;-75
2023/04/03 11:53:44;;;;;;;20.73;4.40;;;12.30;99.90;;;;;;5132921;27;20043;-74
2023/04/03 11:56:27;;;;;;;15.90;4.75;;;12.20;99.90;;;;;;5133261;27;20027;-74
2023/04/03 11:59:23;;;;;;;15.55;4.72;;;12.10;99.90;;;;;;5132921;27;20095;-74
2023/04/03 12:01:57;;;;;;;16.45;4.75;;;12.10;99.90;;;;;;5130561;27;20042;-74
2023/04/03 12:04:26;;;;;;;11.18;4.15;;;12.20;99.90;;;;;;5131691;27;20066;-75
2023/04/03 12:07:10;;;;;;;15.40;4.47;;;12.20;99.90;;;;;;5132603;27;20033;-75
2023/04/03 12:09:42;;;;;;;11.02;3.80;;;12.20;99.90;;;;;;5131657;27;20035;-74
2023/04/03 12:12:25;;;;;;;19.33;4.97;;;12.20;99.90;;;;;;5132061;27;20460;-74
2023/04/03 12:14:52;;;;;;;12.90;4.43;;;12.00;99.90;;;;;;5131749;27;20455;-75
2023/04/03 12:17:29;;;;;;;14.95;5.15;;;12.10;99.90;;;;;;5132288;27;20075;-74
2023/04/03 12:19:55;;;;;;;15.70;5.05;;;12.10;99.90;;;;;;5132549;27;20062;-74
2023/04/03 12:22:21;;;;;;;14.80;4.15;;;12.00;99.90;;;;;;5132283;27;20078;-78
2023/04/03 12:24:52;;;;;;;12.85;4.82;;;12.00;99.90;;;;;;5133410;27;20030;-75
2023/04/03 12:27:40;;;;;;;16.13;4.57;;;12.00;99.90;;;;;;5132344;27;20023;-74
2023/04/03 12:30:25;;;;;;;15.95;4.18;;;12.10;99.90;;;;;;5132723;27;20035;-75
2023/04/03 12:33:26;;;;;;;15.15;4.00;;;12.00;99.90;;;;;;5113999;27;20035;-75
2023/04/03 12:36:23;;;;;;;11.13;4.05;;;12.00;99.90;;;;;;5132189;27;20092;-75
2023/04/03 12:39:04;;;;;;;16.35;3.95;;;12.00;99.90;;;;;;5121482;27;20032;-75
2023/04/03 12:41:39;;;;;;;13.13;3.95;;;11.90;99.90;;;;;;5113079;27;20436;-74
2023/04/03 12:44:26;;;;;;;12.05;3.90;;;11.70;99.90;;;;;;5131743;27;20084;-74
2023/04/03 12:46:52;;;;;;;10.85;3.80;;;11.70;99.90;;;;;;5132001;27;20030;-74
2023/04/03 12:49:38;;;;;;;11.82;4.47;;;11.60;99.90;;;;;;5131941;27;20415;-74
2023/04/03 12:52:44;;;;;;;14.88;4.15;;;11.70;99.90;;;;;;5131783;27;20340;-75
2023/04/03 12:55:18;;;;;;;16.80;4.75;;;11.80;99.90;;;;;;5098775;27;20114;-75
2023/04/03 12:57:50;;;;;;;16.42;6.28;;;11.90;99.90;;;;;;5131238;27;20593;-75
2023/04/03 13:00:33;;;;;;;12.10;3.83;;;12.00;99.90;;;;;;5131853;27;20079;-74
2023/04/03 13:03:01;;;;;;;20.20;5.97;;;12.10;99.90;;;;;;5131661;27;20105;-74
2023/04/03 13:05:28;;;;;;;15.27;3.88;;;12.30;99.90;;;;;;5130387;27;20107;-78